sensor_id;sensor_type;location;lat;lon;timestamp;temperature;humidity
4054;DHT22;2042;47.956;9.222;2023-09-19T00:00:19;13.90;26.70
4054;DHT22;2042;47.956;9.222;2023-09-19T00:02:55;13.80;26.70
4054;DHT22;2042;47.956;9.222;2023-09-19T00:05:25;13.90;28.10
4054;DHT22;2042;47.956;9.222;2023-09-19T00:07:56;13.90;28.60
4054;DHT22;2042;47.956;9.222;2023-09-19T00:10:27;14.00;28.90
4054;DHT22;2042;47.956;9.222;2023-09-19T00:12:57;14.00;28.60
4054;DHT22;2042;47.956;9.222;2023-09-19T00:15:24;14.00;28.30
4054;DHT22;2042;47.956;9.222;2023-09-19T00:17:52;14.00;27.50
4054;DHT22;2042;47.956;9.222;2023-09-19T00:20:18;13.90;27.10
4054;DHT22;2042;47.956;9.222;2023-09-19T00:22:44;13.90;26.70
4054;DHT22;2042;47.956;9.222;2023-09-19T00:25:10;13.80;26.70
4054;DHT22;2042;47.956;9.222;2023-09-19T00:27:38;13.80;27.30
4054;DHT22;2042;47.956;9.222;2023-09-19T00:30:08;13.80;27.30
4054;DHT22;2042;47.956;9.222;2023-09-19T00:32:42;13.80;27.70
4054;DHT22;2042;47.956;9.222;2023-09-19T00:35:08;13.80;28.10
4054;DHT22;2042;47.956;9.222;2023-09-19T00:37:36;13.80;28.10
4054;DHT22;2042;47.956;9.222;2023-09-19T00:40:06;13.70;27.90
4054;DHT22;2042;47.956;9.222;2023-09-19T00:42:34;13.70;27.90
4054;DHT22;2042;47.956;9.222;2023-09-19T00:45:04;13.70;28.00
4054;DHT22;2042;47.956;9.222;2023-09-19T00:47:30;13.70;28.40
4054;DHT22;2042;47.956;9.222;2023-09-19T00:49:56;13.70;28.90
4054;DHT22;2042;47.956;9.222;2023-09-19T00:52:22;13.80;29.70
4054;DHT22;2042;47.956;9.222;2023-09-19T00:54:49;13.80;29.10
4054;DHT22;2042;47.956;9.222;2023-09-19T00:57:15;13.80;28.80
4054;DHT22;2042;47.956;9.222;2023-09-19T00:59:41;13.80;28.90
4054;DHT22;2042;47.956;9.222;2023-09-19T01:02:08;13.80;28.40
4054;DHT22;2042;47.956;9.222;2023-09-19T01:04:34;13.70;28.10
4054;DHT22;2042;47.956;9.222;2023-09-19T01:06:59;13.80;29.00
4054;DHT22;2042;47.956;9.222;2023-09-19T01:09:25;13.80;29.30
4054;DHT22;2042;47.956;9.222;2023-09-19T01:11:53;13.80;28.70
4054;DHT22;2042;47.956;9.222;2023-09-19T01:14:38;13.80;29.00
4054;DHT22;2042;47.956;9.222;2023-09-19T01:17:14;13.80;29.00
4054;DHT22;2042;47.956;9.222;2023-09-19T01:20:27;13.80;29.30
4054;DHT22;2042;47.956;9.222;2023-09-19T01:23:07;13.80;29.20
4054;DHT22;2042;47.956;9.222;2023-09-19T01:30:44;13.90;29.60
4054;DHT22;2042;47.956;9.222;2023-09-19T01:33:12;13.80;29.00
4054;DHT22;2042;47.956;9.222;2023-09-19T01:35:38;13.80;28.50
4054;DHT22;2042;47.956;9.222;2023-09-19T01:38:08;13.80;29.20
4054;DHT22;2042;47.956;9.222;2023-09-19T01:40:41;13.80;29.20
4054;DHT22;2042;47.956;9.222;2023-09-19T01:43:21;13.80;28.40
4054;DHT22;2042;47.956;9.222;2023-09-19T01:46:05;13.70;28.00
4054;DHT22;2042;47.956;9.222;2023-09-19T01:51:32;13.60;28.80
4054;DHT22;2042;47.956;9.222;2023-09-19T01:54:04;13.60;28.80
4054;DHT22;2042;47.956;9.222;2023-09-19T01:56:57;13.70;29.30
4054;DHT22;2042;47.956;9.222;2023-09-19T01:59:34;13.60;28.60
4054;DHT22;2042;47.956;9.222;2023-09-19T02:02:01;13.60;29.10
4054;DHT22;2042;47.956;9.222;2023-09-19T02:04:27;13.70;29.20
4054;DHT22;2042;47.956;9.222;2023-09-19T02:06:53;13.60;28.60
4054;DHT22;2042;47.956;9.222;2023-09-19T02:09:19;13.60;29.10
4054;DHT22;2042;47.956;9.222;2023-09-19T02:11:45;13.60;29.00
4054;DHT22;2042;47.956;9.222;2023-09-19T02:14:11;13.60;29.30
4054;DHT22;2042;47.956;9.222;2023-09-19T02:16:37;13.60;29.20
4054;DHT22;2042;47.956;9.222;2023-09-19T02:19:03;13.60;29.40
4054;DHT22;2042;47.956;9.222;2023-09-19T02:21:31;13.70;29.70
4054;DHT22;2042;47.956;9.222;2023-09-19T02:23:57;13.70;29.50
4054;DHT22;2042;47.956;9.222;2023-09-19T02:26:24;13.60;29.00
4054;DHT22;2042;47.956;9.222;2023-09-19T02:28:50;13.60;29.00
4054;DHT22;2042;47.956;9.222;2023-09-19T02:31:16;13.60;29.00
4054;DHT22;2042;47.956;9.222;2023-09-19T02:33:42;13.60;29.10
4054;DHT22;2042;47.956;9.222;2023-09-19T02:36:08;13.70;29.30
4054;DHT22;2042;47.956;9.222;2023-09-19T02:38:34;13.70;29.60
4054;DHT22;2042;47.956;9.222;2023-09-19T02:41:00;13.70;30.10
4054;DHT22;2042;47.956;9.222;2023-09-19T02:43:27;13.80;30.30
4054;DHT22;2042;47.956;9.222;2023-09-19T02:45:53;13.80;30.20
4054;DHT22;2042;47.956;9.222;2023-09-19T02:48:22;13.90;30.30
4054;DHT22;2042;47.956;9.222;2023-09-19T02:50:51;14.00;30.20
4054;DHT22;2042;47.956;9.222;2023-09-19T02:53:17;14.00;30.00
4054;DHT22;2042;47.956;9.222;2023-09-19T02:55:42;14.00;29.80
4054;DHT22;2042;47.956;9.222;2023-09-19T02:58:08;14.10;29.50
4054;DHT22;2042;47.956;9.222;2023-09-19T03:00:36;14.10;29.10
4054;DHT22;2042;47.956;9.222;2023-09-19T03:03:02;14.10;28.80
4054;DHT22;2042;47.956;9.222;2023-09-19T03:05:28;14.10;28.70
4054;DHT22;2042;47.956;9.222;2023-09-19T03:07:57;14.10;28.40
4054;DHT22;2042;47.956;9.222;2023-09-19T03:10:26;14.10;27.90
4054;DHT22;2042;47.956;9.222;2023-09-19T03:12:53;14.20;27.70
4054;DHT22;2042;47.956;9.222;2023-09-19T03:15:19;14.20;27.10
4054;DHT22;2042;47.956;9.222;2023-09-19T03:17:46;14.10;26.80
4054;DHT22;2042;47.956;9.222;2023-09-19T03:20:13;14.20;26.80
4054;DHT22;2042;47.956;9.222;2023-09-19T03:22:39;14.20;26.40
4054;DHT22;2042;47.956;9.222;2023-09-19T03:25:06;14.20;25.60
4054;DHT22;2042;47.956;9.222;2023-09-19T03:27:35;14.20;25.20
4054;DHT22;2042;47.956;9.222;2023-09-19T03:30:01;14.20;24.80
4054;DHT22;2042;47.956;9.222;2023-09-19T03:32:31;14.20;24.50
4054;DHT22;2042;47.956;9.222;2023-09-19T03:34:57;14.20;24.40
4054;DHT22;2042;47.956;9.222;2023-09-19T03:37:22;14.20;24.10
4054;DHT22;2042;47.956;9.222;2023-09-19T03:39:48;14.20;23.80
4054;DHT22;2042;47.956;9.222;2023-09-19T03:42:14;14.20;23.60
4054;DHT22;2042;47.956;9.222;2023-09-19T03:44:39;14.20;23.40
4054;DHT22;2042;47.956;9.222;2023-09-19T03:47:05;14.20;23.10
4054;DHT22;2042;47.956;9.222;2023-09-19T03:49:32;14.10;22.70
4054;DHT22;2042;47.956;9.222;2023-09-19T03:51:59;14.10;22.30
4054;DHT22;2042;47.956;9.222;2023-09-19T03:54:25;14.10;21.90
4054;DHT22;2042;47.956;9.222;2023-09-19T03:56:50;14.00;21.80
4054;DHT22;2042;47.956;9.222;2023-09-19T03:59:16;13.90;21.90
4054;DHT22;2042;47.956;9.222;2023-09-19T04:01:42;13.90;22.20
4054;DHT22;2042;47.956;9.222;2023-09-19T04:04:08;13.90;23.00
4054;DHT22;2042;47.956;9.222;2023-09-19T04:06:36;13.90;23.20
4054;DHT22;2042;47.956;9.222;2023-09-19T04:09:03;13.90;23.20
4054;DHT22;2042;47.956;9.222;2023-09-19T04:11:29;13.90;22.90
4054;DHT22;2042;47.956;9.222;2023-09-19T04:13:56;13.90;22.90
4054;DHT22;2042;47.956;9.222;2023-09-19T04:16:22;13.90;22.80
4054;DHT22;2042;47.956;9.222;2023-09-19T04:18:47;13.90;22.90
4054;DHT22;2042;47.956;9.222;2023-09-19T04:21:13;13.90;23.30
4054;DHT22;2042;47.956;9.222;2023-09-19T04:23:38;13.90;23.50
4054;DHT22;2042;47.956;9.222;2023-09-19T04:26:04;13.90;23.50
4054;DHT22;2042;47.956;9.222;2023-09-19T04:28:30;13.90;23.70
4054;DHT22;2042;47.956;9.222;2023-09-19T04:30:57;13.90;23.80
4054;DHT22;2042;47.956;9.222;2023-09-19T04:33:24;13.90;23.90
4054;DHT22;2042;47.956;9.222;2023-09-19T04:35:51;13.90;24.30
4054;DHT22;2042;47.956;9.222;2023-09-19T04:38:18;13.90;24.60
4054;DHT22;2042;47.956;9.222;2023-09-19T04:40:44;14.00;24.80
4054;DHT22;2042;47.956;9.222;2023-09-19T04:43:10;14.00;24.80
4054;DHT22;2042;47.956;9.222;2023-09-19T04:45:38;14.00;24.80
4054;DHT22;2042;47.956;9.222;2023-09-19T04:48:05;14.00;24.70
4054;DHT22;2042;47.956;9.222;2023-09-19T04:50:32;14.00;24.80
4054;DHT22;2042;47.956;9.222;2023-09-19T04:52:59;14.10;25.50
4054;DHT22;2042;47.956;9.222;2023-09-19T04:55:26;14.00;24.80
4054;DHT22;2042;47.956;9.222;2023-09-19T04:57:53;14.10;24.90
4054;DHT22;2042;47.956;9.222;2023-09-19T05:00:23;14.10;24.60
4054;DHT22;2042;47.956;9.222;2023-09-19T05:02:54;14.10;24.50
4054;DHT22;2042;47.956;9.222;2023-09-19T05:05:21;14.00;24.50
4054;DHT22;2042;47.956;9.222;2023-09-19T05:07:48;14.00;24.50
4054;DHT22;2042;47.956;9.222;2023-09-19T05:10:14;14.00;24.30
4054;DHT22;2042;47.956;9.222;2023-09-19T05:12:40;14.00;23.90
4054;DHT22;2042;47.956;9.222;2023-09-19T05:15:07;13.90;23.90
4054;DHT22;2042;47.956;9.222;2023-09-19T05:17:33;13.90;24.00
4054;DHT22;2042;47.956;9.222;2023-09-19T05:20:00;13.90;25.10
4054;DHT22;2042;47.956;9.222;2023-09-19T05:22:38;13.90;25.80
4054;DHT22;2042;47.956;9.222;2023-09-19T05:25:06;14.00;26.20
4054;DHT22;2042;47.956;9.222;2023-09-19T05:27:32;14.00;26.40
4054;DHT22;2042;47.956;9.222;2023-09-19T05:29:59;14.10;26.60
4054;DHT22;2042;47.956;9.222;2023-09-19T05:32:25;14.10;26.50
4054;DHT22;2042;47.956;9.222;2023-09-19T05:34:50;14.20;26.20
4054;DHT22;2042;47.956;9.222;2023-09-19T05:37:19;14.20;25.50
4054;DHT22;2042;47.956;9.222;2023-09-19T05:39:45;14.20;25.20
4054;DHT22;2042;47.956;9.222;2023-09-19T05:42:10;14.20;25.50
4054;DHT22;2042;47.956;9.222;2023-09-19T05:44:36;14.30;26.30
4054;DHT22;2042;47.956;9.222;2023-09-19T05:47:03;14.30;25.40
4054;DHT22;2042;47.956;9.222;2023-09-19T05:49:29;14.30;24.30
4054;DHT22;2042;47.956;9.222;2023-09-19T05:51:54;14.40;23.70
4054;DHT22;2042;47.956;9.222;2023-09-19T05:54:22;14.30;23.50
4054;DHT22;2042;47.956;9.222;2023-09-19T05:56:47;14.30;23.50
4054;DHT22;2042;47.956;9.222;2023-09-19T05:59:18;14.40;23.80
4054;DHT22;2042;47.956;9.222;2023-09-19T06:01:43;14.40;24.40
4054;DHT22;2042;47.956;9.222;2023-09-19T06:04:09;14.60;25.90
4054;DHT22;2042;47.956;9.222;2023-09-19T06:06:34;14.90;26.60
4054;DHT22;2042;47.956;9.222;2023-09-19T06:09:04;15.10;26.70
4054;DHT22;2042;47.956;9.222;2023-09-19T06:11:31;15.50;26.10
4054;DHT22;2042;47.956;9.222;2023-09-19T06:14:03;15.80;25.10
4054;DHT22;2042;47.956;9.222;2023-09-19T06:16:29;16.30;21.00
4054;DHT22;2042;47.956;9.222;2023-09-19T06:18:55;16.70;16.20
4054;DHT22;2042;47.956;9.222;2023-09-19T06:21:24;17.20;12.60
4054;DHT22;2042;47.956;9.222;2023-09-19T06:23:49;17.70;6.50
4054;DHT22;2042;47.956;9.222;2023-09-19T06:26:15;18.30;1.60
4054;DHT22;2042;47.956;9.222;2023-09-19T06:28:41;18.90;1.00
4054;DHT22;2042;47.956;9.222;2023-09-19T06:31:08;19.50;1.00
4054;DHT22;2042;47.956;9.222;2023-09-19T06:33:36;19.90;1.00
4054;DHT22;2042;47.956;9.222;2023-09-19T06:36:06;20.00;1.00
4054;DHT22;2042;47.956;9.222;2023-09-19T06:38:32;19.70;1.00
4054;DHT22;2042;47.956;9.222;2023-09-19T06:41:00;19.50;1.00
4054;DHT22;2042;47.956;9.222;2023-09-19T06:43:26;19.30;1.00
4054;DHT22;2042;47.956;9.222;2023-09-19T06:45:53;19.20;1.00
4054;DHT22;2042;47.956;9.222;2023-09-19T06:48:20;19.20;1.00
4054;DHT22;2042;47.956;9.222;2023-09-19T06:50:46;19.40;1.00
4054;DHT22;2042;47.956;9.222;2023-09-19T06:53:13;19.20;1.00
4054;DHT22;2042;47.956;9.222;2023-09-19T06:55:39;19.00;1.00
4054;DHT22;2042;47.956;9.222;2023-09-19T06:58:05;18.90;1.00
4054;DHT22;2042;47.956;9.222;2023-09-19T07:00:31;19.10;1.00
4054;DHT22;2042;47.956;9.222;2023-09-19T07:03:05;19.60;1.00
4054;DHT22;2042;47.956;9.222;2023-09-19T07:05:35;20.20;1.00
4054;DHT22;2042;47.956;9.222;2023-09-19T07:08:05;20.40;1.00
4054;DHT22;2042;47.956;9.222;2023-09-19T07:10:32;20.30;1.00
4054;DHT22;2042;47.956;9.222;2023-09-19T07:13:03;20.20;1.00
4054;DHT22;2042;47.956;9.222;2023-09-19T07:15:32;20.20;1.00
4054;DHT22;2042;47.956;9.222;2023-09-19T07:18:05;20.40;1.00
4054;DHT22;2042;47.956;9.222;2023-09-19T07:20:31;20.70;1.00
4054;DHT22;2042;47.956;9.222;2023-09-19T07:23:01;20.90;1.00
4054;DHT22;2042;47.956;9.222;2023-09-19T07:25:30;21.10;1.00
4054;DHT22;2042;47.956;9.222;2023-09-19T07:27:57;21.30;1.00
4054;DHT22;2042;47.956;9.222;2023-09-19T07:30:26;21.30;1.00
4054;DHT22;2042;47.956;9.222;2023-09-19T07:32:52;21.00;1.00
4054;DHT22;2042;47.956;9.222;2023-09-19T07:35:18;20.80;1.00
4054;DHT22;2042;47.956;9.222;2023-09-19T07:37:48;20.70;1.00
4054;DHT22;2042;47.956;9.222;2023-09-19T07:40:18;20.90;1.00
4054;DHT22;2042;47.956;9.222;2023-09-19T07:42:44;21.10;1.00
4054;DHT22;2042;47.956;9.222;2023-09-19T07:45:12;21.30;1.00
4054;DHT22;2042;47.956;9.222;2023-09-19T07:47:49;21.30;1.00
4054;DHT22;2042;47.956;9.222;2023-09-19T07:50:17;21.20;1.00
4054;DHT22;2042;47.956;9.222;2023-09-19T07:52:47;21.50;1.00
4054;DHT22;2042;47.956;9.222;2023-09-19T07:55:13;21.80;1.00
4054;DHT22;2042;47.956;9.222;2023-09-19T07:57:42;21.70;1.00
4054;DHT22;2042;47.956;9.222;2023-09-19T08:00:08;22.20;1.00
4054;DHT22;2042;47.956;9.222;2023-09-19T08:02:39;22.90;1.00
4054;DHT22;2042;47.956;9.222;2023-09-19T08:05:06;23.50;1.00
4054;DHT22;2042;47.956;9.222;2023-09-19T08:07:32;24.10;1.00
4054;DHT22;2042;47.956;9.222;2023-09-19T08:09:58;24.30;1.00
4054;DHT22;2042;47.956;9.222;2023-09-19T08:12:24;24.70;1.00
4054;DHT22;2042;47.956;9.222;2023-09-19T08:14:50;25.70;1.00
4054;DHT22;2042;47.956;9.222;2023-09-19T08:17:16;26.40;1.00
4054;DHT22;2042;47.956;9.222;2023-09-19T08:19:42;26.40;1.00
4054;DHT22;2042;47.956;9.222;2023-09-19T08:22:10;26.30;1.00
4054;DHT22;2042;47.956;9.222;2023-09-19T08:24:36;26.90;1.00
4054;DHT22;2042;47.956;9.222;2023-09-19T08:27:04;28.40;1.00
4054;DHT22;2042;47.956;9.222;2023-09-19T08:29:31;29.10;1.00
4054;DHT22;2042;47.956;9.222;2023-09-19T08:31:57;29.50;1.00
4054;DHT22;2042;47.956;9.222;2023-09-19T08:34:24;29.80;1.00
4054;DHT22;2042;47.956;9.222;2023-09-19T08:36:51;30.50;1.00
4054;DHT22;2042;47.956;9.222;2023-09-19T08:39:18;30.70;1.00
4054;DHT22;2042;47.956;9.222;2023-09-19T08:41:45;30.90;1.00
4054;DHT22;2042;47.956;9.222;2023-09-19T08:44:10;31.10;1.00
4054;DHT22;2042;47.956;9.222;2023-09-19T08:46:37;30.80;1.00
4054;DHT22;2042;47.956;9.222;2023-09-19T08:49:35;29.40;1.00
4054;DHT22;2042;47.956;9.222;2023-09-19T08:52:19;28.70;1.00
4054;DHT22;2042;47.956;9.222;2023-09-19T08:54:47;28.20;1.00
4054;DHT22;2042;47.956;9.222;2023-09-19T08:57:15;27.50;1.00
4054;DHT22;2042;47.956;9.222;2023-09-19T08:59:50;27.40;1.00
4054;DHT22;2042;47.956;9.222;2023-09-19T09:02:17;26.30;1.00
4054;DHT22;2042;47.956;9.222;2023-09-19T09:04:45;26.00;1.00
4054;DHT22;2042;47.956;9.222;2023-09-19T09:07:13;27.80;1.00
4054;DHT22;2042;47.956;9.222;2023-09-19T09:09:39;29.30;1.00
4054;DHT22;2042;47.956;9.222;2023-09-19T09:12:17;30.50;1.00
4054;DHT22;2042;47.956;9.222;2023-09-19T09:14:46;32.00;1.00
4054;DHT22;2042;47.956;9.222;2023-09-19T09:17:14;32.70;1.00
4054;DHT22;2042;47.956;9.222;2023-09-19T09:19:40;32.90;1.00
4054;DHT22;2042;47.956;9.222;2023-09-19T09:22:10;32.50;1.00
4054;DHT22;2042;47.956;9.222;2023-09-19T09:24:37;32.40;1.00
4054;DHT22;2042;47.956;9.222;2023-09-19T09:27:05;33.00;1.00
4054;DHT22;2042;47.956;9.222;2023-09-19T09:29:47;33.40;1.00
4054;DHT22;2042;47.956;9.222;2023-09-19T09:32:24;33.30;1.00
4054;DHT22;2042;47.956;9.222;2023-09-19T09:37:21;32.60;1.00
4054;DHT22;2042;47.956;9.222;2023-09-19T09:39:59;33.70;1.00
4054;DHT22;2042;47.956;9.222;2023-09-19T09:42:45;34.30;1.00
4054;DHT22;2042;47.956;9.222;2023-09-19T09:45:22;34.40;1.00
4054;DHT22;2042;47.956;9.222;2023-09-19T09:48:03;34.20;1.00
4054;DHT22;2042;47.956;9.222;2023-09-19T09:50:32;34.90;1.00
4054;DHT22;2042;47.956;9.222;2023-09-19T09:53:34;35.90;1.00
4054;DHT22;2042;47.956;9.222;2023-09-19T09:58:49;36.40;1.00
4054;DHT22;2042;47.956;9.222;2023-09-19T10:01:15;36.10;1.00
4054;DHT22;2042;47.956;9.222;2023-09-19T10:03:42;35.00;1.00
4054;DHT22;2042;47.956;9.222;2023-09-19T10:06:17;33.00;1.00
4054;DHT22;2042;47.956;9.222;2023-09-19T10:09:05;30.70;1.00
4054;DHT22;2042;47.956;9.222;2023-09-19T10:11:44;29.00;1.00
4054;DHT22;2042;47.956;9.222;2023-09-19T10:14:12;28.70;1.00
4054;DHT22;2042;47.956;9.222;2023-09-19T10:16:47;29.00;1.00
4054;DHT22;2042;47.956;9.222;2023-09-19T10:19:21;28.30;1.00
4054;DHT22;2042;47.956;9.222;2023-09-19T10:21:50;27.00;1.00
4054;DHT22;2042;47.956;9.222;2023-09-19T10:24:18;27.70;1.00
4054;DHT22;2042;47.956;9.222;2023-09-19T10:26:45;29.90;1.00
4054;DHT22;2042;47.956;9.222;2023-09-19T10:29:13;31.60;1.00
4054;DHT22;2042;47.956;9.222;2023-09-19T10:31:42;32.90;1.00
4054;DHT22;2042;47.956;9.222;2023-09-19T10:34:14;33.90;1.00
4054;DHT22;2042;47.956;9.222;2023-09-19T10:36:44;33.90;1.00
4054;DHT22;2042;47.956;9.222;2023-09-19T10:39:11;33.30;1.00
4054;DHT22;2042;47.956;9.222;2023-09-19T10:41:39;32.90;1.00
4054;DHT22;2042;47.956;9.222;2023-09-19T10:44:05;32.80;1.00
4054;DHT22;2042;47.956;9.222;2023-09-19T10:46:32;33.10;1.00
4054;DHT22;2042;47.956;9.222;2023-09-19T10:49:02;32.70;1.00
4054;DHT22;2042;47.956;9.222;2023-09-19T10:51:39;31.80;1.00
4054;DHT22;2042;47.956;9.222;2023-09-19T10:54:13;31.10;1.00
4054;DHT22;2042;47.956;9.222;2023-09-19T10:56:49;31.20;1.00
4054;DHT22;2042;47.956;9.222;2023-09-19T10:59:20;31.60;1.00
4054;DHT22;2042;47.956;9.222;2023-09-19T11:01:51;31.90;1.00
4054;DHT22;2042;47.956;9.222;2023-09-19T11:04:31;32.40;1.00
4054;DHT22;2042;47.956;9.222;2023-09-19T11:07:04;32.40;1.00
4054;DHT22;2042;47.956;9.222;2023-09-19T11:12:12;33.40;1.00
4054;DHT22;2042;47.956;9.222;2023-09-19T11:14:39;34.00;1.00
4054;DHT22;2042;47.956;9.222;2023-09-19T11:30:49;32.90;1.00
4054;DHT22;2042;47.956;9.222;2023-09-19T11:33:18;32.90;1.00
4054;DHT22;2042;47.956;9.222;2023-09-19T11:43:46;33.80;1.00
4054;DHT22;2042;47.956;9.222;2023-09-19T11:46:12;34.40;1.00
4054;DHT22;2042;47.956;9.222;2023-09-19T11:48:42;35.00;1.00
4054;DHT22;2042;47.956;9.222;2023-09-19T11:51:11;35.60;1.00
4054;DHT22;2042;47.956;9.222;2023-09-19T11:53:51;36.20;1.00
4054;DHT22;2042;47.956;9.222;2023-09-19T11:56:18;35.90;1.00
4054;DHT22;2042;47.956;9.222;2023-09-19T11:58:46;35.40;1.00
4054;DHT22;2042;47.956;9.222;2023-09-19T12:01:15;34.90;1.00
4054;DHT22;2042;47.956;9.222;2023-09-19T12:03:47;34.50;1.00
4054;DHT22;2042;47.956;9.222;2023-09-19T12:06:18;34.00;1.00
4054;DHT22;2042;47.956;9.222;2023-09-19T12:08:44;34.10;1.00
4054;DHT22;2042;47.956;9.222;2023-09-19T12:11:18;34.50;1.00
4054;DHT22;2042;47.956;9.222;2023-09-19T12:13:46;35.10;1.00
4054;DHT22;2042;47.956;9.222;2023-09-19T12:16:18;35.90;1.00
4054;DHT22;2042;47.956;9.222;2023-09-19T12:18:47;36.20;1.00
4054;DHT22;2042;47.956;9.222;2023-09-19T12:21:23;36.00;1.00
4054;DHT22;2042;47.956;9.222;2023-09-19T12:24:14;36.00;1.00
4054;DHT22;2042;47.956;9.222;2023-09-19T12:26:45;36.30;1.00
4054;DHT22;2042;47.956;9.222;2023-09-19T12:29:19;35.50;1.00
4054;DHT22;2042;47.956;9.222;2023-09-19T12:31:56;33.20;1.00
4054;DHT22;2042;47.956;9.222;2023-09-19T12:34:32;32.40;1.00
4054;DHT22;2042;47.956;9.222;2023-09-19T12:39:38;32.50;1.00
4054;DHT22;2042;47.956;9.222;2023-09-19T12:42:04;33.00;1.00
4054;DHT22;2042;47.956;9.222;2023-09-19T12:44:37;33.30;1.00
4054;DHT22;2042;47.956;9.222;2023-09-19T12:47:14;33.40;1.00
4054;DHT22;2042;47.956;9.222;2023-09-19T12:50:10;32.90;1.00
4054;DHT22;2042;47.956;9.222;2023-09-19T12:52:45;31.40;1.00
4054;DHT22;2042;47.956;9.222;2023-09-19T12:55:31;30.30;1.00
4054;DHT22;2042;47.956;9.222;2023-09-19T12:58:11;29.30;1.00
4054;DHT22;2042;47.956;9.222;2023-09-19T13:00:43;29.50;1.00
4054;DHT22;2042;47.956;9.222;2023-09-19T13:03:15;30.40;1.00
4054;DHT22;2042;47.956;9.222;2023-09-19T13:05:52;31.10;1.00
4054;DHT22;2042;47.956;9.222;2023-09-19T13:08:21;30.90;1.00
4054;DHT22;2042;47.956;9.222;2023-09-19T13:13:34;29.20;1.00
4054;DHT22;2042;47.956;9.222;2023-09-19T13:16:02;28.10;1.00
4054;DHT22;2042;47.956;9.222;2023-09-19T13:18:28;27.40;1.00
4054;DHT22;2042;47.956;9.222;2023-09-19T13:21:11;27.40;1.00
4054;DHT22;2042;47.956;9.222;2023-09-19T13:23:54;28.30;1.00
4054;DHT22;2042;47.956;9.222;2023-09-19T13:26:49;29.30;1.00
4054;DHT22;2042;47.956;9.222;2023-09-19T13:29:36;29.30;1.00
4054;DHT22;2042;47.956;9.222;2023-09-19T13:32:02;29.50;1.00
4054;DHT22;2042;47.956;9.222;2023-09-19T13:34:29;29.70;1.00
4054;DHT22;2042;47.956;9.222;2023-09-19T13:36:56;30.40;1.00
4054;DHT22;2042;47.956;9.222;2023-09-19T13:39:21;30.90;1.00
4054;DHT22;2042;47.956;9.222;2023-09-19T13:41:50;31.40;1.00
4054;DHT22;2042;47.956;9.222;2023-09-19T13:44:15;31.60;1.00
4054;DHT22;2042;47.956;9.222;2023-09-19T13:46:43;31.50;1.00
4054;DHT22;2042;47.956;9.222;2023-09-19T13:49:11;30.70;1.00
4054;DHT22;2042;47.956;9.222;2023-09-19T13:51:37;30.40;1.00
4054;DHT22;2042;47.956;9.222;2023-09-19T13:54:03;30.30;1.00
4054;DHT22;2042;47.956;9.222;2023-09-19T13:56:28;30.60;1.00
4054;DHT22;2042;47.956;9.222;2023-09-19T13:58:57;30.80;1.00
4054;DHT22;2042;47.956;9.222;2023-09-19T14:01:22;30.70;1.00
4054;DHT22;2042;47.956;9.222;2023-09-19T14:03:48;30.00;1.00
4054;DHT22;2042;47.956;9.222;2023-09-19T14:06:16;29.30;1.00
4054;DHT22;2042;47.956;9.222;2023-09-19T14:08:41;28.80;1.00
4054;DHT22;2042;47.956;9.222;2023-09-19T14:11:08;28.40;1.00
4054;DHT22;2042;47.956;9.222;2023-09-19T14:13:34;28.30;1.00
4054;DHT22;2042;47.956;9.222;2023-09-19T14:16:08;28.20;1.00
4054;DHT22;2042;47.956;9.222;2023-09-19T14:18:35;27.70;1.00
4054;DHT22;2042;47.956;9.222;2023-09-19T14:21:07;27.60;1.00
4054;DHT22;2042;47.956;9.222;2023-09-19T14:23:37;27.60;1.00
4054;DHT22;2042;47.956;9.222;2023-09-19T14:26:03;27.60;1.00
4054;DHT22;2042;47.956;9.222;2023-09-19T14:28:30;27.80;1.00
4054;DHT22;2042;47.956;9.222;2023-09-19T14:30:56;27.50;1.00
4054;DHT22;2042;47.956;9.222;2023-09-19T14:33:21;27.40;1.00
4054;DHT22;2042;47.956;9.222;2023-09-19T14:35:47;27.80;1.00
4054;DHT22;2042;47.956;9.222;2023-09-19T14:38:14;28.10;1.00
4054;DHT22;2042;47.956;9.222;2023-09-19T14:40:39;27.70;1.00
4054;DHT22;2042;47.956;9.222;2023-09-19T14:43:05;26.90;1.00
4054;DHT22;2042;47.956;9.222;2023-09-19T14:45:36;26.00;1.00
4054;DHT22;2042;47.956;9.222;2023-09-19T14:48:01;25.20;1.00
4054;DHT22;2042;47.956;9.222;2023-09-19T14:50:30;24.30;1.00
4054;DHT22;2042;47.956;9.222;2023-09-19T14:52:56;23.40;1.00
4054;DHT22;2042;47.956;9.222;2023-09-19T14:55:22;22.90;1.00
4054;DHT22;2042;47.956;9.222;2023-09-19T14:57:51;22.40;1.00
4054;DHT22;2042;47.956;9.222;2023-09-19T15:00:17;22.00;1.00
4054;DHT22;2042;47.956;9.222;2023-09-19T15:02:45;21.60;1.00
4054;DHT22;2042;47.956;9.222;2023-09-19T15:05:13;21.40;1.00
4054;DHT22;2042;47.956;9.222;2023-09-19T15:07:41;21.20;1.00
4054;DHT22;2042;47.956;9.222;2023-09-19T15:10:06;21.00;1.00
4054;DHT22;2042;47.956;9.222;2023-09-19T15:12:36;20.90;1.00
4054;DHT22;2042;47.956;9.222;2023-09-19T15:15:06;20.90;1.00
4054;DHT22;2042;47.956;9.222;2023-09-19T15:17:35;20.90;1.00
4054;DHT22;2042;47.956;9.222;2023-09-19T15:20:02;20.80;1.00
4054;DHT22;2042;47.956;9.222;2023-09-19T15:22:28;20.70;1.00
4054;DHT22;2042;47.956;9.222;2023-09-19T15:24:54;20.70;1.00
4054;DHT22;2042;47.956;9.222;2023-09-19T15:27:20;20.50;1.00
4054;DHT22;2042;47.956;9.222;2023-09-19T15:29:46;20.40;1.00
4054;DHT22;2042;47.956;9.222;2023-09-19T15:32:12;20.40;1.00
4054;DHT22;2042;47.956;9.222;2023-09-19T15:34:38;20.30;1.00
4054;DHT22;2042;47.956;9.222;2023-09-19T15:37:04;20.20;1.00
4054;DHT22;2042;47.956;9.222;2023-09-19T15:39:31;20.20;1.00
4054;DHT22;2042;47.956;9.222;2023-09-19T15:41:59;20.10;1.00
4054;DHT22;2042;47.956;9.222;2023-09-19T15:44:25;20.10;1.00
4054;DHT22;2042;47.956;9.222;2023-09-19T15:46:53;20.10;1.00
4054;DHT22;2042;47.956;9.222;2023-09-19T15:49:19;20.00;1.00
4054;DHT22;2042;47.956;9.222;2023-09-19T15:51:45;19.90;1.00
4054;DHT22;2042;47.956;9.222;2023-09-19T15:54:13;19.80;1.00
4054;DHT22;2042;47.956;9.222;2023-09-19T15:56:39;19.70;1.00
4054;DHT22;2042;47.956;9.222;2023-09-19T15:59:07;19.60;1.00
4054;DHT22;2042;47.956;9.222;2023-09-19T16:01:34;19.50;1.00
4054;DHT22;2042;47.956;9.222;2023-09-19T16:04:00;19.40;1.00
4054;DHT22;2042;47.956;9.222;2023-09-19T16:06:28;19.40;1.00
4054;DHT22;2042;47.956;9.222;2023-09-19T16:08:55;19.30;1.00
4054;DHT22;2042;47.956;9.222;2023-09-19T16:11:22;19.30;1.00
4054;DHT22;2042;47.956;9.222;2023-09-19T16:13:49;19.30;1.00
4054;DHT22;2042;47.956;9.222;2023-09-19T16:16:16;19.30;1.00
4054;DHT22;2042;47.956;9.222;2023-09-19T16:18:50;19.30;1.00
4054;DHT22;2042;47.956;9.222;2023-09-19T16:21:16;19.20;1.00
4054;DHT22;2042;47.956;9.222;2023-09-19T16:23:46;19.20;1.00
4054;DHT22;2042;47.956;9.222;2023-09-19T16:26:12;19.10;1.00
4054;DHT22;2042;47.956;9.222;2023-09-19T16:28:41;19.10;1.00
4054;DHT22;2042;47.956;9.222;2023-09-19T16:31:08;19.10;1.00
4054;DHT22;2042;47.956;9.222;2023-09-19T16:33:35;19.10;1.00
4054;DHT22;2042;47.956;9.222;2023-09-19T16:36:02;19.00;1.00
4054;DHT22;2042;47.956;9.222;2023-09-19T16:38:28;19.00;1.00
4054;DHT22;2042;47.956;9.222;2023-09-19T16:40:58;18.90;1.00
4054;DHT22;2042;47.956;9.222;2023-09-19T16:43:27;18.80;1.00
4054;DHT22;2042;47.956;9.222;2023-09-19T16:45:56;18.70;1.00
4054;DHT22;2042;47.956;9.222;2023-09-19T16:48:23;18.60;1.00
4054;DHT22;2042;47.956;9.222;2023-09-19T16:50:50;18.50;1.00
4054;DHT22;2042;47.956;9.222;2023-09-19T16:53:17;18.40;1.00
4054;DHT22;2042;47.956;9.222;2023-09-19T16:55:46;18.30;1.00
4054;DHT22;2042;47.956;9.222;2023-09-19T16:58:13;18.20;1.00
4054;DHT22;2042;47.956;9.222;2023-09-19T17:00:39;18.20;1.00
4054;DHT22;2042;47.956;9.222;2023-09-19T17:03:05;18.10;1.00
4054;DHT22;2042;47.956;9.222;2023-09-19T17:05:34;18.00;1.00